Time;durP1;ratioP1;P1;durP2;ratioP2;P2;SDS_P1;SDS_P2;PMS_P1;PMS_P2;Temp;Humidity;BMP_temperature;BMP_pressure;BME280_temperature;BME280_humidity;BME280_pressure;Samples;Min_cycle;Max_cycle;Signal;HPM_P1;HPM_P2
2024/02/18 00:02:04;;;;;;;0.30;0.20;;;;;;;8.97;98.24;102013.47;5039995;28;20567;-51
2024/02/18 00:04:31;;;;;;;0.30;0.20;;;;;;;8.73;98.76;102016.84;5050960;28;20534;-52
2024/02/18 00:06:59;;;;;;;0.30;0.20;;;;;;;8.90;99.81;102004.56;5039252;28;20447;-51
2024/02/18 00:09:26;;;;;;;0.30;0.20;;;;;;;8.77;100.00;102008.03;5045182;28;20494;-51
2024/02/18 00:11:53;;;;;;;0.30;0.20;;;;;;;8.85;99.39;102008.97;5034256;28;20498;-49
2024/02/18 00:14:19;;;;;;;0.30;0.20;;;;;;;8.89;99.73;102000.16;5045642;28;20451;-49
2024/02/18 00:16:45;;;;;;;0.30;0.20;;;;;;;8.85;99.66;102003.66;5045338;28;20546;-49
2024/02/18 00:19:12;;;;;;;0.30;0.20;;;;;;;8.91;99.99;102001.06;5038428;28;20462;-49
2024/02/18 00:21:39;;;;;;;0.30;0.20;;;;;;;8.80;99.38;102000.13;5038515;28;20533;-48
2024/02/18 00:24:05;;;;;;;0.30;0.20;;;;;;;8.61;100.00;101997.31;5045075;28;20479;-48
2024/02/18 00:26:32;;;;;;;0.30;0.20;;;;;;;8.80;100.00;102000.13;5045377;28;20461;-49
2024/02/18 00:29:15;;;;;;;0.30;0.20;;;;;;;8.86;100.00;101992.19;5040378;28;20871;-49
2024/02/18 00:31:42;;;;;;;0.30;0.20;;;;;;;8.89;100.00;101987.78;5038278;28;20491;-49
2024/02/18 00:34:09;;;;;;;0.30;0.20;;;;;;;8.84;100.00;101986.88;5049798;28;20508;-48
2024/02/18 00:36:36;;;;;;;0.30;0.20;;;;;;;8.87;99.66;101992.19;5049039;28;20971;-49
2024/02/18 00:39:03;;;;;;;0.30;0.20;;;;;;;8.88;99.92;101993.06;5040891;28;20451;-49
2024/02/18 00:41:29;;;;;;;0.30;0.20;;;;;;;8.90;100.00;101989.53;5037877;28;20991;-49
2024/02/18 00:43:56;;;;;;;0.30;0.30;;;;;;;8.84;100.00;101980.69;5050154;28;20944;-49
2024/02/18 00:46:22;;;;;;;0.30;0.20;;;;;;;8.75;100.00;101983.28;5048811;28;20997;-49
2024/02/18 00:49:08;;;;;;;0.30;0.20;;;;;;;8.91;100.00;101969.25;5039837;28;20821;-48
2024/02/18 00:51:35;;;;;;;0.30;0.20;;;;;;;8.89;100.00;101969.22;5044444;28;20569;-49
2024/02/18 00:54:02;;;;;;;0.30;0.20;;;;;;;8.90;100.00;101965.69;5034490;28;20997;-48
2024/02/18 00:56:28;;;;;;;0.30;0.20;;;;;;;8.95;100.00;101968.38;5045071;28;20483;-49
2024/02/18 00:58:55;;;;;;;0.30;0.20;;;;;;;8.86;100.00;101968.31;5043600;28;20455;-49
2024/02/18 01:01:21;;;;;;;1.60;1.60;;;;;;;8.98;100.00;101973.69;5038050;28;20469;-48
2024/02/18 01:03:48;;;;;;;0.30;0.20;;;;;;;8.85;100.00;101963.91;5044346;28;20500;-48
2024/02/18 01:06:14;;;;;;;0.30;0.20;;;;;;;8.64;100.00;101969.09;5044944;28;20940;-49
2024/02/18 01:08:43;;;;;;;0.30;0.20;;;;;;;8.53;100.00;101969.91;5046351;28;20947;-48
2024/02/18 01:11:11;;;;;;;0.30;0.20;;;;;;;8.64;100.00;101975.28;5041353;28;20888;-49
2024/02/18 01:13:38;;;;;;;0.30;0.20;;;;;;;8.51;100.00;101982.25;5041732;28;20478;-49
2024/02/18 01:16:04;;;;;;;0.30;0.20;;;;;;;8.51;100.00;101978.72;5048315;28;20473;-48
2024/02/18 01:18:40;;;;;;;0.30;0.20;;;;;;;8.39;100.00;101975.97;5048172;28;20539;-48
2024/02/18 01:21:07;;;;;;;0.30;0.20;;;;;;;8.44;100.00;101976.88;5042635;28;20549;-48
2024/02/18 01:23:34;;;;;;;0.30;0.20;;;;;;;8.30;100.00;101977.63;5041476;28;20447;-49
2024/02/18 01:26:00;;;;;;;0.30;0.20;;;;;;;8.24;100.00;101976.72;5046826;28;20461;-49
2024/02/18 01:28:27;;;;;;;0.30;0.20;;;;;;;8.38;100.00;101972.44;5050266;28;20443;-51
2024/02/18 01:30:53;;;;;;;0.30;0.20;;;;;;;8.41;100.00;101979.53;5045454;28;21034;-53
2024/02/18 01:34:18;;;;;;;0.30;0.20;;;;;;;8.24;100.00;101964.34;5050588;28;20529;-51
2024/02/18 01:36:45;;;;;;;0.30;0.20;;;;;;;8.20;100.00;101969.59;5050425;28;20815;-52
2024/02/18 01:39:11;;;;;;;0.30;0.20;;;;;;;8.22;100.00;101968.75;5044972;28;20833;-51
2024/02/18 01:41:38;;;;;;;0.30;0.20;;;;;;;8.46;100.00;101959.22;5040931;28;20469;-51
2024/02/18 01:44:04;;;;;;;1.07;1.07;;;;;;;8.45;100.00;101963.66;5052904;28;20454;-51
2024/02/18 01:46:30;;;;;;;0.30;0.20;;;;;;;8.44;100.00;101953.94;5036939;28;20522;-51
2024/02/18 01:48:57;;;;;;;0.40;0.20;;;;;;;8.23;100.00;101956.41;5045189;28;20533;-50
2024/02/18 01:51:24;;;;;;;0.30;0.20;;;;;;;8.48;100.00;101954.81;5040264;28;20494;-51
2024/02/18 01:53:51;;;;;;;0.30;0.20;;;;;;;8.46;100.00;101957.47;5043375;28;20514;-50
2024/02/18 01:56:20;;;;;;;0.30;0.20;;;;;;;8.27;100.00;101955.53;5038879;28;20486;-51
2024/02/18 01:58:47;;;;;;;0.30;0.20;;;;;;;8.09;100.00;101961.59;5042263;28;20448;-51
2024/02/18 02:01:15;;;;;;;0.30;0.20;;;;;;;7.95;100.00;101963.22;5047245;28;20463;-52
2024/02/18 02:03:44;;;;;;;0.30;0.20;;;;;;;7.65;100.00;101961.13;5046625;28;20455;-51
2024/02/18 02:06:13;;;;;;;0.30;0.20;;;;;;;7.90;100.00;101970.22;5052777;28;20443;-51
2024/02/18 02:08:40;;;;;;;0.30;0.20;;;;;;;7.87;100.00;101971.06;5053833;28;20549;-51
2024/02/18 02:11:06;;;;;;;0.30;0.20;;;;;;;7.74;100.00;101969.19;5040491;28;20577;-51
2024/02/18 02:13:33;;;;;;;0.30;0.20;;;;;;;7.61;99.41;101968.16;5040999;28;20979;-51
2024/02/18 02:16:00;;;;;;;0.30;0.20;;;;;;;7.38;99.79;101967.91;5047252;28;20843;-51
2024/02/18 02:18:26;;;;;;;0.30;0.20;;;;;;;7.36;99.90;101961.72;5046736;28;20451;-51
2024/02/18 02:20:53;;;;;;;0.30;0.20;;;;;;;7.41;99.79;101960.03;5038535;28;20468;-51
2024/02/18 02:23:19;;;;;;;0.30;0.20;;;;;;;7.17;99.98;101967.66;5033547;28;21031;-51
2024/02/18 02:25:46;;;;;;;0.30;0.20;;;;;;;7.31;100.00;101959.91;5040547;28;20451;-52
2024/02/18 02:28:19;;;;;;;0.30;0.20;;;;;;;7.18;98.75;101960.63;5053544;28;20447;-51
2024/02/18 02:30:46;;;;;;;0.30;0.20;;;;;;;7.04;100.00;101948.13;5033577;28;20499;-51
2024/02/18 02:33:13;;;;;;;0.30;0.20;;;;;;;7.08;100.00;101949.91;5046892;28;20461;-51
2024/02/18 02:35:39;;;;;;;0.30;0.20;;;;;;;7.05;100.00;101951.63;5052677;28;20450;-51
2024/02/18 02:38:06;;;;;;;0.30;0.20;;;;;;;7.02;100.00;101949.84;5039666;28;20560;-51
2024/02/18 02:40:32;;;;;;;0.30;0.20;;;;;;;6.98;100.00;101948.00;5045679;28;20505;-51
2024/02/18 02:42:59;;;;;;;0.30;0.20;;;;;;;7.00;100.00;101953.34;5045767;28;20447;-51
2024/02/18 02:45:25;;;;;;;0.30;0.20;;;;;;;7.09;100.00;101948.16;5053323;28;20447;-50
2024/02/18 02:47:52;;;;;;;0.30;0.20;;;;;;;7.15;99.94;101956.19;5038449;28;20447;-51
2024/02/18 02:50:19;;;;;;;0.30;0.20;;;;;;;6.97;98.69;101948.88;5041428;28;20546;-51
2024/02/18 02:52:46;;;;;;;12.73;11.83;;;;;;;6.87;99.85;101946.13;5066994;22;20589;-48
2024/02/18 02:55:13;;;;;;;0.30;0.20;;;;;;;6.82;99.70;101940.75;5053151;28;20504;-51
2024/02/18 02:57:39;;;;;;;0.30;0.20;;;;;;;6.81;99.17;101936.34;5052968;28;20451;-49
2024/02/18 03:00:09;;;;;;;0.30;0.20;;;;;;;6.95;100.00;101941.81;5053048;28;20450;-49
2024/02/18 03:02:37;;;;;;;0.30;0.20;;;;;;;6.98;100.00;101941.84;5050260;28;21003;-49
2024/02/18 03:05:11;;;;;;;0.30;0.20;;;;;;;7.15;100.00;101947.38;5047021;28;20457;-49
2024/02/18 03:07:38;;;;;;;0.30;0.20;;;;;;;6.94;99.67;101948.84;5039257;28;20446;-48
2024/02/18 03:10:05;;;;;;;0.30;0.20;;;;;;;6.82;100.00;101944.28;5041885;28;20456;-51
2024/02/18 03:12:32;;;;;;;0.30;0.20;;;;;;;6.81;100.00;101941.63;5046022;28;20533;-49
2024/02/18 03:14:58;;;;;;;0.30;0.20;;;;;;;6.70;100.00;101941.47;5043815;28;20456;-49
2024/02/18 03:17:25;;;;;;;0.30;0.20;;;;;;;6.76;100.00;101941.56;5039148;28;20455;-50
2024/02/18 03:19:53;;;;;;;0.30;0.20;;;;;;;6.64;100.00;101938.75;5041802;28;20448;-49
2024/02/18 03:22:21;;;;;;;0.30;0.20;;;;;;;6.71;100.00;101945.00;5046260;28;20472;-51
2024/02/18 03:24:48;;;;;;;0.30;0.20;;;;;;;6.79;100.00;101933.69;5044467;28;20455;-51
2024/02/18 03:27:17;;;;;;;0.30;0.20;;;;;;;6.80;100.00;101934.56;5039597;28;20536;-50
2024/02/18 03:29:44;;;;;;;0.30;0.20;;;;;;;6.89;100.00;101923.25;5052365;28;20450;-48
2024/02/18 03:32:11;;;;;;;0.30;0.20;;;;;;;6.99;100.00;101931.31;5037887;28;20529;-51
2024/02/18 03:34:37;;;;;;;0.30;0.20;;;;;;;7.01;100.00;101920.75;5050912;28;20868;-48
2024/02/18 03:37:04;;;;;;;0.30;0.20;;;;;;;6.75;99.94;101926.59;5046447;28;20525;-50
2024/02/18 03:39:31;;;;;;;0.30;0.20;;;;;;;6.63;100.00;101915.84;5045438;28;20557;-49
2024/02/18 03:41:57;;;;;;;0.30;0.20;;;;;;;6.66;100.00;101913.25;5038937;28;20473;-49
2024/02/18 03:44:24;;;;;;;2.90;2.60;;;;;;;6.47;100.00;101908.59;5050748;28;20531;-48
2024/02/18 03:46:50;;;;;;;0.30;0.20;;;;;;;6.51;100.00;101908.63;5038806;28;20451;-48
2024/02/18 03:49:17;;;;;;;0.30;0.20;;;;;;;6.59;100.00;101906.13;5054120;28;20530;-48
2024/02/18 03:51:43;;;;;;;0.30;0.20;;;;;;;6.68;100.00;101913.25;5041317;28;20517;-47
2024/02/18 03:54:10;;;;;;;0.30;0.20;;;;;;;6.56;99.29;101911.34;5041278;28;20456;-50
2024/02/18 03:56:37;;;;;;;0.30;0.20;;;;;;;6.36;99.03;101911.06;5045672;28;20455;-48
2024/02/18 03:59:04;;;;;;;0.30;0.20;;;;;;;6.27;99.86;101910.91;5047539;28;20455;-49
2024/02/18 04:01:30;;;;;;;0.30;0.20;;;;;;;6.23;99.98;101909.97;5048188;28;20578;-48
2024/02/18 04:03:57;;;;;;;0.30;0.20;;;;;;;6.04;99.64;101910.56;5050669;28;20508;-49
2024/02/18 04:06:23;;;;;;;0.30;0.20;;;;;;;5.98;99.77;101909.56;5042102;28;20932;-49
2024/02/18 04:08:50;;;;;;;0.30;0.20;;;;;;;5.93;99.33;101914.78;5043210;28;20447;-49
2024/02/18 04:11:16;;;;;;;0.30;0.20;;;;;;;5.91;99.78;101906.84;5035200;28;20495;-49
2024/02/18 04:13:43;;;;;;;0.30;0.20;;;;;;;5.97;100.00;101915.72;5047135;28;20477;-49
2024/02/18 04:16:09;;;;;;;0.30;0.20;;;;;;;5.84;99.63;101914.59;5039245;28;20545;-48
2024/02/18 04:18:36;;;;;;;0.30;0.20;;;;;;;6.04;100.00;101915.84;5038765;28;20451;-48
2024/02/18 04:21:03;;;;;;;0.30;0.20;;;;;;;5.86;99.89;101910.22;5039735;28;20542;-48
2024/02/18 04:23:29;;;;;;;0.30;0.20;;;;;;;5.98;100.00;101906.94;5038622;28;20889;-48
2024/02/18 04:25:56;;;;;;;0.30;0.20;;;;;;;6.01;100.00;101907.84;5044877;28;20936;-50
2024/02/18 04:28:22;;;;;;;0.30;0.20;;;;;;;6.02;100.00;101901.72;5045778;28;20815;-48
2024/02/18 04:30:48;;;;;;;0.30;0.20;;;;;;;6.07;100.00;101907.09;5041180;28;20539;-49
2024/02/18 04:33:15;;;;;;;0.30;0.20;;;;;;;6.03;100.00;101905.25;5039411;28;20491;-49
2024/02/18 04:35:41;;;;;;;0.30;0.20;;;;;;;6.14;100.00;101907.19;5052893;28;20447;-48
2024/02/18 04:38:08;;;;;;;0.30;0.20;;;;;;;6.16;100.00;101904.56;5039376;28;20448;-48
2024/02/18 04:40:35;;;;;;;0.30;0.20;;;;;;;6.17;100.00;101901.09;5044480;28;20546;-49
2024/02/18 04:43:01;;;;;;;0.30;0.20;;;;;;;6.24;100.00;101893.28;5046907;28;20473;-48
2024/02/18 04:45:27;;;;;;;0.30;0.20;;;;;;;6.42;100.00;101894.41;5044939;28;20453;-49
2024/02/18 04:47:54;;;;;;;0.30;0.20;;;;;;;6.47;100.00;101890.09;5040374;28;20455;-49
2024/02/18 04:50:20;;;;;;;0.30;0.20;;;;;;;6.54;100.00;101878.72;5044984;28;20446;-48
2024/02/18 04:52:47;;;;;;;0.30;0.20;;;;;;;6.46;100.00;101877.75;5041920;28;20588;-48
2024/02/18 04:55:13;;;;;;;0.30;0.20;;;;;;;6.60;100.00;101865.63;5044927;28;20451;-49
2024/02/18 04:57:40;;;;;;;0.30;0.20;;;;;;;6.58;100.00;101874.38;5049192;28;20975;-48
2024/02/18 05:00:07;;;;;;;0.30;0.20;;;;;;;6.67;100.00;101866.56;5045670;28;20470;-48
2024/02/18 05:02:34;;;;;;;0.30;0.20;;;;;;;6.66;100.00;101868.31;5042660;28;20470;-48
2024/02/18 05:05:00;;;;;;;0.30;0.20;;;;;;;6.59;100.00;101865.59;5055777;28;20461;-48
2024/02/18 05:07:27;;;;;;;0.30;0.20;;;;;;;6.56;100.00;101852.31;5041877;28;20448;-49
2024/02/18 05:09:53;;;;;;;0.30;0.20;;;;;;;6.48;100.00;101850.50;5056008;28;20517;-48
2024/02/18 05:12:20;;;;;;;0.30;0.20;;;;;;;6.61;100.00;101854.19;5042898;28;20530;-48
2024/02/18 05:14:46;;;;;;;0.30;0.20;;;;;;;6.56;100.00;101855.84;5047028;28;20458;-49
2024/02/18 05:17:12;;;;;;;0.30;0.20;;;;;;;6.58;100.00;101848.88;5048739;28;20504;-48
2024/02/18 05:19:39;;;;;;;0.30;0.20;;;;;;;6.52;100.00;101851.41;5043967;28;20526;-50
2024/02/18 05:22:06;;;;;;;0.30;0.20;;;;;;;6.44;100.00;101859.25;5047643;28;20481;-51
2024/02/18 05:24:33;;;;;;;0.30;0.20;;;;;;;6.40;100.00;101854.78;5045992;28;20443;-48
2024/02/18 05:27:00;;;;;;;0.30;0.20;;;;;;;6.45;100.00;101858.38;5048288;28;20451;-48
2024/02/18 05:29:26;;;;;;;0.30;0.17;;;;;;;6.68;100.00;101852.50;5055703;28;20520;-48
2024/02/18 05:31:53;;;;;;;0.30;0.20;;;;;;;6.54;100.00;101854.97;5051595;28;20571;-48
2024/02/18 05:34:19;;;;;;;0.30;0.20;;;;;;;6.58;100.00;101853.22;5045774;28;20482;-49
2024/02/18 05:36:46;;;;;;;0.30;0.20;;;;;;;6.67;100.00;101856.88;5051525;28;20483;-49
2024/02/18 05:39:13;;;;;;;0.30;0.20;;;;;;;6.70;100.00;101854.28;5038602;28;20447;-49
2024/02/18 05:41:40;;;;;;;0.30;0.20;;;;;;;6.65;100.00;101853.34;5049016;28;20472;-49
2024/02/18 05:44:06;;;;;;;0.30;0.20;;;;;;;6.60;100.00;101849.78;5046896;28;20458;-48
2024/02/18 05:46:33;;;;;;;0.30;0.20;;;;;;;6.50;100.00;101842.59;5042363;28;20526;-48
2024/02/18 05:48:59;;;;;;;0.30;0.20;;;;;;;6.46;100.00;101840.78;5055892;28;20458;-50
2024/02/18 05:51:26;;;;;;;0.30;0.20;;;;;;;6.66;100.00;101841.91;5040546;28;20489;-48
2024/02/18 05:53:53;;;;;;;0.30;0.20;;;;;;;6.57;100.00;101833.84;5043168;28;20451;-49
2024/02/18 05:56:19;;;;;;;0.30;0.20;;;;;;;6.66;100.00;101835.72;5048118;28;20458;-48
2024/02/18 05:58:45;;;;;;;0.30;0.20;;;;;;;6.70;100.00;101843.72;5035568;28;20459;-47
2024/02/18 06:01:12;;;;;;;0.30;0.20;;;;;;;6.58;100.00;101832.09;5048489;28;20476;-49
2024/02/18 06:03:39;;;;;;;0.30;0.20;;;;;;;6.54;100.00;101840.00;5047017;28;20451;-48
2024/02/18 06:06:07;;;;;;;0.30;0.20;;;;;;;6.41;100.00;101831.88;5050592;28;20447;-48
2024/02/18 06:08:33;;;;;;;0.30;0.20;;;;;;;6.57;100.00;101828.56;5042629;28;20502;-48
2024/02/18 06:11:00;;;;;;;0.30;0.20;;;;;;;6.49;100.00;101823.22;5048557;28;20456;-49
2024/02/18 06:13:26;;;;;;;0.30;0.20;;;;;;;6.35;100.00;101824.78;5033786;28;20491;-48
2024/02/18 06:15:53;;;;;;;0.30;0.20;;;;;;;6.35;100.00;101818.63;5052629;28;20816;-48
2024/02/18 06:18:20;;;;;;;0.30;0.20;;;;;;;6.36;100.00;101808.06;5042472;28;20463;-50
2024/02/18 06:20:46;;;;;;;0.30;0.20;;;;;;;6.22;100.00;101812.28;5048172;28;20447;-48
2024/02/18 06:23:13;;;;;;;0.30;0.20;;;;;;;6.21;100.00;101819.31;5038961;28;20481;-49
2024/02/18 06:25:39;;;;;;;0.30;0.20;;;;;;;6.15;100.00;101813.94;5047635;28;20546;-49
2024/02/18 06:28:09;;;;;;;0.30;0.20;;;;;;;6.18;100.00;101807.84;5048652;28;20443;-49
2024/02/18 06:30:37;;;;;;;0.30;0.20;;;;;;;6.08;100.00;101809.44;5048763;28;20452;-49
2024/02/18 06:33:04;;;;;;;0.30;0.20;;;;;;;6.01;100.00;101815.50;5048110;28;21011;-48
2024/02/18 06:35:31;;;;;;;0.30;0.20;;;;;;;5.95;100.00;101810.13;5052672;28;20485;-48
2024/02/18 06:37:58;;;;;;;0.30;0.20;;;;;;;6.06;100.00;101811.19;5040775;28;20452;-48
2024/02/18 06:40:27;;;;;;;0.30;0.20;;;;;;;6.04;100.00;101809.38;5041981;28;20444;-48
2024/02/18 06:42:54;;;;;;;0.30;0.20;;;;;;;5.97;100.00;101808.41;5042288;28;20454;-48
2024/02/18 06:45:20;;;;;;;0.30;0.20;;;;;;;5.88;100.00;101805.56;5044292;28;20497;-48
2024/02/18 06:47:47;;;;;;;0.30;0.20;;;;;;;6.06;100.00;101807.66;5040447;28;20880;-49
2024/02/18 06:50:15;;;;;;;0.30;0.20;;;;;;;6.02;100.00;101806.69;5042958;28;20461;-49
2024/02/18 06:52:41;;;;;;;0.30;0.10;;;;;;;5.92;100.00;101804.81;5042997;28;20534;-49
2024/02/18 06:55:09;;;;;;;0.30;0.20;;;;;;;6.03;100.00;101819.06;5046448;28;21051;-49
2024/02/18 06:57:36;;;;;;;0.30;0.20;;;;;;;6.14;100.00;101808.63;5050141;28;20461;-48
2024/02/18 07:00:03;;;;;;;0.30;0.20;;;;;;;5.95;100.00;101807.50;5045963;28;20456;-48
2024/02/18 07:02:29;;;;;;;0.30;0.20;;;;;;;6.04;100.00;101806.75;5051868;28;20489;-50
2024/02/18 07:04:56;;;;;;;0.30;0.20;;;;;;;6.05;100.00;101806.78;5050695;28;20479;-50
2024/02/18 07:07:23;;;;;;;0.30;0.20;;;;;;;6.10;100.00;101806.81;5043331;28;20502;-49
2024/02/18 07:09:49;;;;;;;0.30;0.20;;;;;;;6.24;100.00;101805.25;5045680;28;20886;-50
2024/02/18 07:12:18;;;;;;;0.30;0.20;;;;;;;6.20;100.00;101798.19;5047037;28;20582;-49
2024/02/18 07:14:45;;;;;;;0.30;0.20;;;;;;;6.16;100.00;101791.06;5044068;28;21095;-49
2024/02/18 07:17:12;;;;;;;0.30;0.20;;;;;;;6.23;100.00;101795.56;5047081;28;20526;-50
2024/02/18 07:19:39;;;;;;;0.30;0.20;;;;;;;6.39;100.00;101799.28;5043896;28;20450;-49
2024/02/18 07:22:06;;;;;;;0.30;0.20;;;;;;;6.43;100.00;101794.06;5038713;28;20553;-50
2024/02/18 07:24:33;;;;;;;0.30;0.10;;;;;;;6.51;100.00;101800.34;5041369;28;20435;-49
2024/02/18 07:26:59;;;;;;;0.30;0.20;;;;;;;6.45;100.00;101791.47;5042123;28;20918;-50
2024/02/18 07:29:26;;;;;;;0.30;0.20;;;;;;;6.64;100.00;101788.16;5043012;28;20476;-49
2024/02/18 07:31:52;;;;;;;0.30;0.20;;;;;;;6.78;100.00;101798.88;5052316;28;21050;-49
2024/02/18 07:34:19;;;;;;;0.30;0.20;;;;;;;6.78;100.00;101801.53;5052200;28;20533;-50
2024/02/18 07:36:46;;;;;;;0.30;0.20;;;;;;;6.73;100.00;101800.59;5041399;28;20506;-49
2024/02/18 07:39:13;;;;;;;0.30;0.20;;;;;;;6.88;100.00;101794.59;5043789;28;20543;-49
2024/02/18 07:41:39;;;;;;;0.30;0.20;;;;;;;6.88;100.00;101795.50;5039233;28;20471;-52
2024/02/18 07:44:07;;;;;;;0.30;0.20;;;;;;;6.70;100.00;101790.88;5042667;28;20444;-50
2024/02/18 07:46:33;;;;;;;0.30;0.20;;;;;;;6.73;100.00;101792.69;5046821;28;20463;-50
2024/02/18 07:49:00;;;;;;;0.30;0.20;;;;;;;6.77;100.00;101790.06;5043820;28;20613;-50
2024/02/18 07:51:27;;;;;;;0.30;0.20;;;;;;;6.65;100.00;101791.69;5040250;28;20482;-48
2024/02/18 07:53:55;;;;;;;0.30;0.20;;;;;;;6.40;100.00;101793.13;5053259;28;21025;-48
2024/02/18 07:56:22;;;;;;;0.30;0.20;;;;;;;6.66;100.00;101785.53;5039883;28;20453;-50
2024/02/18 07:58:49;;;;;;;0.30;0.20;;;;;;;6.93;100.00;101779.66;5044130;28;20547;-49
2024/02/18 08:01:15;;;;;;;0.30;0.20;;;;;;;6.82;100.00;101772.50;5048831;28;20475;-49
2024/02/18 08:03:43;;;;;;;0.30;0.20;;;;;;;6.81;100.00;101770.72;5044992;28;20446;-50
2024/02/18 08:06:09;;;;;;;0.30;0.20;;;;;;;7.04;100.00;101767.44;5052483;28;20556;-48
2024/02/18 08:08:36;;;;;;;0.30;0.20;;;;;;;7.30;100.00;101779.16;5049236;28;20569;-49
2024/02/18 08:11:02;;;;;;;0.30;0.20;;;;;;;7.86;100.00;101784.00;5047393;28;21028;-48
2024/02/18 08:13:29;;;;;;;0.30;0.20;;;;;;;8.01;100.00;101768.19;5040129;28;20488;-50
2024/02/18 08:15:56;;;;;;;0.30;0.20;;;;;;;7.69;100.00;101769.78;5037401;28;20979;-49
2024/02/18 08:18:24;;;;;;;0.30;0.20;;;;;;;7.63;100.00;101770.59;5039812;28;20451;-49
2024/02/18 08:20:51;;;;;;;0.40;0.20;;;;;;;7.43;100.00;101762.53;5045438;28;20475;-49
2024/02/18 08:23:17;;;;;;;0.30;0.20;;;;;;;7.57;100.00;101772.31;5043427;28;20550;-48
2024/02/18 08:25:44;;;;;;;0.30;0.20;;;;;;;7.69;100.00;101777.72;5038118;28;20483;-48
2024/02/18 08:28:10;;;;;;;0.30;0.20;;;;;;;7.60;100.00;101772.34;5051217;28;20538;-50
2024/02/18 08:30:37;;;;;;;0.30;0.20;;;;;;;7.78;100.00;101779.50;5038405;28;20508;-49
2024/02/18 08:33:04;;;;;;;0.30;0.20;;;;;;;7.80;100.00;101773.34;5038184;28;20498;-50
2024/02/18 08:35:30;;;;;;;0.30;0.20;;;;;;;7.79;100.00;101773.34;5051402;28;20951;-49
2024/02/18 08:37:57;;;;;;;0.30;0.20;;;;;;;7.76;100.00;101765.38;5037982;28;20475;-50
2024/02/18 08:40:23;;;;;;;0.30;0.20;;;;;;;7.78;100.00;101766.28;5044278;28;20476;-51
2024/02/18 08:42:50;;;;;;;0.30;0.20;;;;;;;7.77;100.00;101761.88;5044905;28;20834;-50
2024/02/18 08:45:16;;;;;;;0.30;0.20;;;;;;;7.75;100.00;101758.31;5037754;28;20454;-50
2024/02/18 08:47:43;;;;;;;0.30;0.20;;;;;;;7.70;100.00;101764.47;5037285;28;20526;-49
2024/02/18 08:50:10;;;;;;;0.30;0.20;;;;;;;7.72;100.00;101765.38;5039144;28;20455;-51
2024/02/18 08:52:37;;;;;;;0.30;0.20;;;;;;;7.72;100.00;101764.50;5038106;28;21000;-51
2024/02/18 08:55:04;;;;;;;0.30;0.20;;;;;;;7.87;100.00;101759.28;5043997;28;20487;-51
2024/02/18 08:57:31;;;;;;;0.30;0.20;;;;;;;7.91;100.00;101758.44;5044732;28;20570;-51
2024/02/18 09:00:02;;;;;;;0.30;0.20;;;;;;;7.92;100.00;101752.25;5039172;28;20861;-51
2024/02/18 09:02:28;;;;;;;0.30;0.20;;;;;;;8.05;100.00;101754.97;5037914;28;20498;-51
2024/02/18 09:04:59;;;;;;;0.30;0.20;;;;;;;8.17;100.00;101749.75;5051085;28;20461;-52
2024/02/18 09:07:28;;;;;;;0.30;0.20;;;;;;;8.21;100.00;101740.91;5037315;28;20451;-51
2024/02/18 09:09:54;;;;;;;0.30;0.20;;;;;;;8.37;100.00;101734.88;5042009;28;20451;-51
2024/02/18 09:12:21;;;;;;;0.30;0.20;;;;;;;8.48;100.00;101738.41;5044289;28;21028;-51
2024/02/18 09:14:47;;;;;;;0.30;0.20;;;;;;;8.30;100.00;101731.25;5040854;28;20447;-51
2024/02/18 09:17:17;;;;;;;0.30;0.20;;;;;;;8.41;100.00;101720.75;5037451;28;20447;-51
2024/02/18 09:19:46;;;;;;;0.30;0.20;;;;;;;8.51;100.00;101717.25;5040731;28;20467;-51
2024/02/18 09:22:14;;;;;;;0.30;0.20;;;;;;;8.53;100.00;101704.00;5035062;28;20559;-51
2024/02/18 09:24:44;;;;;;;0.30;0.20;;;;;;;8.42;100.00;101701.31;5039965;28;20444;-52
2024/02/18 09:27:11;;;;;;;0.40;0.40;;;;;;;8.54;100.00;101698.69;5049281;28;20442;-51
2024/02/18 09:29:37;;;;;;;0.30;0.20;;;;;;;8.38;100.00;101688.06;5052716;28;20470;-51
2024/02/18 09:32:04;;;;;;;0.30;0.20;;;;;;;8.23;100.00;101691.50;5036318;28;20979;-51
2024/02/18 09:34:31;;;;;;;0.30;0.20;;;;;;;8.57;100.00;101685.44;5046658;28;20517;-51
2024/02/18 09:36:58;;;;;;;0.30;0.20;;;;;;;8.74;100.00;101681.94;5049254;28;20451;-51
2024/02/18 09:39:24;;;;;;;0.30;0.20;;;;;;;9.05;100.00;101677.56;5046766;28;20448;-51
2024/02/18 09:41:51;;;;;;;0.30;0.20;;;;;;;8.97;100.00;101684.63;5041259;28;20448;-51
2024/02/18 09:44:22;;;;;;;0.30;0.20;;;;;;;9.28;100.00;101685.50;5042077;28;20517;-51
2024/02/18 09:46:52;;;;;;;0.30;0.20;;;;;;;9.29;100.00;101685.50;5047509;28;20537;-51
2024/02/18 09:49:20;;;;;;;0.40;0.37;;;;;;;9.22;100.00;101677.56;5035054;28;20453;-51
2024/02/18 09:51:53;;;;;;;0.30;0.20;;;;;;;9.14;100.00;101672.22;5046518;28;20498;-51
2024/02/18 09:54:21;;;;;;;0.30;0.20;;;;;;;9.11;100.00;101664.28;5047494;28;20563;-51
2024/02/18 09:56:47;;;;;;;0.30;0.20;;;;;;;9.67;100.00;101664.19;5043083;28;20538;-51
2024/02/18 09:59:15;;;;;;;0.30;0.20;;;;;;;9.71;99.47;101654.44;5040623;28;20454;-51
2024/02/18 10:01:44;;;;;;;0.30;0.20;;;;;;;10.02;99.32;101655.22;5044707;28;20526;-51
2024/02/18 10:04:11;;;;;;;0.30;0.20;;;;;;;9.79;97.76;101650.88;5049029;28;20504;-51
2024/02/18 10:06:38;;;;;;;0.40;0.20;;;;;;;10.05;97.79;101657.88;5044247;28;20498;-51
2024/02/18 10:09:07;;;;;;;0.30;0.20;;;;;;;10.19;97.96;101642.75;5046919;28;20455;-51
2024/02/18 10:11:34;;;;;;;0.30;0.20;;;;;;;10.21;96.82;101641.00;5044120;28;20467;-51
2024/02/18 10:14:00;;;;;;;0.77;0.77;;;;;;;10.24;95.86;101632.13;5040316;28;20493;-51
2024/02/18 10:16:27;;;;;;;0.30;0.20;;;;;;;10.30;95.33;101632.97;5043034;28;20535;-51
2024/02/18 10:18:53;;;;;;;0.30;0.20;;;;;;;10.42;96.21;101629.38;5047062;28;20456;-51
2024/02/18 10:21:21;;;;;;;0.30;0.20;;;;;;;10.46;95.50;101630.22;5044421;28;20475;-51
2024/02/18 10:23:49;;;;;;;0.30;0.20;;;;;;;10.56;95.05;101626.63;5039958;28;20522;-51
2024/02/18 10:26:16;;;;;;;0.30;0.20;;;;;;;10.57;95.03;101623.94;5042816;28;20451;-51
2024/02/18 10:28:42;;;;;;;0.30;0.20;;;;;;;10.56;95.43;101627.50;5050838;28;20958;-51
2024/02/18 10:31:10;;;;;;;0.30;0.20;;;;;;;10.69;95.10;101617.66;5042453;28;20475;-51
2024/02/18 10:33:38;;;;;;;0.40;0.20;;;;;;;10.70;94.36;101615.88;5049410;28;20487;-51
2024/02/18 10:36:11;;;;;;;0.30;0.20;;;;;;;10.57;95.35;101618.63;5053437;28;20451;-51
2024/02/18 10:38:45;;;;;;;0.30;0.20;;;;;;;10.63;96.27;101607.94;5039705;28;20462;-51
2024/02/18 10:41:21;;;;;;;0.30;0.20;;;;;;;10.77;95.42;101598.97;5039148;28;20482;-51
2024/02/18 10:43:57;;;;;;;0.30;0.20;;;;;;;10.48;95.75;101597.41;5043914;28;20462;-51
2024/02/18 10:46:24;;;;;;;0.70;0.70;;;;;;;10.62;95.51;101590.22;5046463;28;20530;-51
2024/02/18 10:48:54;;;;;;;0.30;0.30;;;;;;;10.87;94.58;101584.69;5033203;28;20464;-51
2024/02/18 10:51:31;;;;;;;0.30;0.20;;;;;;;10.95;94.90;101574.84;5046372;28;20541;-51
2024/02/18 10:54:08;;;;;;;0.30;0.20;;;;;;;10.77;94.77;101575.91;5044650;28;20461;-51
2024/02/18 10:56:35;;;;;;;0.30;0.20;;;;;;;10.95;95.41;101569.53;5039838;28;20535;-51
2024/02/18 10:59:16;;;;;;;0.30;0.20;;;;;;;11.00;93.80;101559.75;5039828;28;20521;-51
2024/02/18 11:01:49;;;;;;;0.30;0.20;;;;;;;11.11;94.17;101556.97;5044358;28;20870;-51
2024/02/18 11:04:17;;;;;;;0.30;0.20;;;;;;;11.20;94.06;101546.22;5049367;28;20439;-51
2024/02/18 11:06:44;;;;;;;0.30;0.20;;;;;;;11.17;94.77;101543.59;5042943;28;20487;-51
2024/02/18 11:09:14;;;;;;;0.30;0.20;;;;;;;11.53;93.79;101550.28;5046171;28;20488;-51
2024/02/18 11:11:42;;;;;;;0.30;0.20;;;;;;;11.62;94.43;101539.50;5043393;28;20533;-51
2024/02/18 11:14:11;;;;;;;0.30;0.20;;;;;;;11.79;90.92;101536.69;5039053;28;20493;-51
2024/02/18 11:16:39;;;;;;;0.30;0.20;;;;;;;11.79;89.88;101531.34;5041368;28;20422;-51
2024/02/18 11:19:06;;;;;;;0.30;0.20;;;;;;;11.81;90.43;101529.53;5046141;28;20430;-51
2024/02/18 11:21:32;;;;;;;0.30;0.20;;;;;;;11.95;90.33;101524.03;5044161;28;20475;-51
2024/02/18 11:23:59;;;;;;;0.30;0.20;;;;;;;12.04;90.27;101514.09;5038960;28;20517;-51
2024/02/18 11:26:25;;;;;;;0.30;0.20;;;;;;;12.19;89.65;101522.75;5040767;28;20900;-51
2024/02/18 11:28:58;;;;;;;0.40;0.30;;;;;;;12.03;86.14;101515.00;5051549;28;20447;-51